sensor_id;sensor_type;location;lat;lon;timestamp;pressure;altitude;pressure_sealevel;temperature;humidity
51359;BME280;37448;51.588;7.248;2023-12-28T00:01:14;100371.81;;;7.29;100.00
51359;BME280;37448;51.588;7.248;2023-12-28T00:03:14;100383.91;;;7.30;100.00
51359;BME280;37448;51.588;7.248;2023-12-28T00:05:14;100370.09;;;7.28;100.00
51359;BME280;37448;51.588;7.248;2023-12-28T00:07:15;100383.06;;;7.28;100.00
51359;BME280;37448;51.588;7.248;2023-12-28T00:09:15;100371.81;;;7.29;100.00
51359;BME280;37448;51.588;7.248;2023-12-28T00:11:16;100372.69;;;7.30;100.00
51359;BME280;37448;51.588;7.248;2023-12-28T00:13:16;100370.09;;;7.30;100.00
51359;BME280;37448;51.588;7.248;2023-12-28T00:15:17;100382.19;;;7.31;100.00
51359;BME280;37448;51.588;7.248;2023-12-28T00:17:17;100382.19;;;7.29;100.00
51359;BME280;37448;51.588;7.248;2023-12-28T00:19:18;100373.53;;;7.30;100.00
51359;BME280;37448;51.588;7.248;2023-12-28T00:21:20;100389.09;;;7.30;100.00
51359;BME280;37448;51.588;7.248;2023-12-28T00:23:21;100410.72;;;7.31;100.00
51359;BME280;37448;51.588;7.248;2023-12-28T00:25:21;100392.53;;;7.32;100.00
51359;BME280;37448;51.588;7.248;2023-12-28T00:27:21;100394.28;;;7.30;100.00
51359;BME280;37448;51.588;7.248;2023-12-28T00:29:23;100384.78;;;7.29;100.00
51359;BME280;37448;51.588;7.248;2023-12-28T00:31:24;100392.53;;;7.32;100.00
51359;BME280;37448;51.588;7.248;2023-12-28T00:33:24;100384.75;;;7.32;100.00
51359;BME280;37448;51.588;7.248;2023-12-28T00:35:25;100387.34;;;7.32;100.00
51359;BME280;37448;51.588;7.248;2023-12-28T00:37:25;100371.78;;;7.32;100.00
51359;BME280;37448;51.588;7.248;2023-12-28T00:39:25;100367.44;;;7.35;100.00
51359;BME280;37448;51.588;7.248;2023-12-28T00:41:26;100371.78;;;7.32;100.00
51359;BME280;37448;51.588;7.248;2023-12-28T00:43:26;100368.34;;;7.32;100.00
51359;BME280;37448;51.588;7.248;2023-12-28T00:45:27;100370.94;;;7.32;100.00
51359;BME280;37448;51.588;7.248;2023-12-28T00:47:27;100375.25;;;7.31;100.00
51359;BME280;37448;51.588;7.248;2023-12-28T00:49:27;100386.50;;;7.32;100.00
51359;BME280;37448;51.588;7.248;2023-12-28T00:51:28;100379.56;;;7.32;100.00
51359;BME280;37448;51.588;7.248;2023-12-28T00:53:28;100386.47;;;7.35;100.00
51359;BME280;37448;51.588;7.248;2023-12-28T00:55:29;100374.34;;;7.37;100.00
51359;BME280;37448;51.588;7.248;2023-12-28T00:57:30;100399.44;;;7.38;100.00
51359;BME280;37448;51.588;7.248;2023-12-28T00:59:30;100389.06;;;7.40;100.00
51359;BME280;37448;51.588;7.248;2023-12-28T01:01:32;100393.34;;;7.42;100.00
51359;BME280;37448;51.588;7.248;2023-12-28T01:03:33;100394.22;;;7.43;100.00
51359;BME280;37448;51.588;7.248;2023-12-28T01:05:35;100393.34;;;7.44;100.00
51359;BME280;37448;51.588;7.248;2023-12-28T01:07:35;100391.63;;;7.43;100.00
51359;BME280;37448;51.588;7.248;2023-12-28T01:09:35;100396.78;;;7.46;100.00
51359;BME280;37448;51.588;7.248;2023-12-28T01:11:37;100402.81;;;7.48;100.00
51359;BME280;37448;51.588;7.248;2023-12-28T01:13:37;100397.63;;;7.48;100.00
51359;BME280;37448;51.588;7.248;2023-12-28T01:15:38;100400.19;;;7.51;100.00
51359;BME280;37448;51.588;7.248;2023-12-28T01:17:38;100401.06;;;7.52;100.00
51359;BME280;37448;51.588;7.248;2023-12-28T01:19:39;100407.94;;;7.54;100.00
51359;BME280;37448;51.588;7.248;2023-12-28T01:21:39;100405.34;;;7.56;100.00
51359;BME280;37448;51.588;7.248;2023-12-28T01:23:40;100409.66;;;7.55;100.00
51359;BME280;37448;51.588;7.248;2023-12-28T01:25:40;100409.66;;;7.55;100.00
51359;BME280;37448;51.588;7.248;2023-12-28T01:27:40;100407.94;;;7.54;100.00
51359;BME280;37448;51.588;7.248;2023-12-28T01:29:41;100403.59;;;7.58;100.00
51359;BME280;37448;51.588;7.248;2023-12-28T01:31:41;100414.81;;;7.58;100.00
51359;BME280;37448;51.588;7.248;2023-12-28T01:33:41;100420.00;;;7.58;100.00
51359;BME280;37448;51.588;7.248;2023-12-28T01:35:43;100413.94;;;7.61;100.00
51359;BME280;37448;51.588;7.248;2023-12-28T01:37:43;100424.28;;;7.64;100.00
51359;BME280;37448;51.588;7.248;2023-12-28T01:39:44;100424.28;;;7.64;100.00
51359;BME280;37448;51.588;7.248;2023-12-28T01:41:44;100414.78;;;7.65;100.00
51359;BME280;37448;51.588;7.248;2023-12-28T01:43:46;100418.19;;;7.70;100.00
51359;BME280;37448;51.588;7.248;2023-12-28T01:45:46;100423.34;;;7.73;100.00
51359;BME280;37448;51.588;7.248;2023-12-28T01:47:48;100430.25;;;7.74;100.00
51359;BME280;37448;51.588;7.248;2023-12-28T01:49:48;100429.34;;;7.78;100.00
51359;BME280;37448;51.588;7.248;2023-12-28T01:51:49;100424.16;;;7.80;100.00
51359;BME280;37448;51.588;7.248;2023-12-28T01:53:50;100416.34;;;7.81;100.00
51359;BME280;37448;51.588;7.248;2023-12-28T01:55:52;100426.69;;;7.86;100.00
51359;BME280;37448;51.588;7.248;2023-12-28T01:57:54;100424.94;;;7.89;100.00
51359;BME280;37448;51.588;7.248;2023-12-28T01:59:55;100437.03;;;7.91;100.00
51359;BME280;37448;51.588;7.248;2023-12-28T02:01:55;100427.50;;;7.93;100.00
51359;BME280;37448;51.588;7.248;2023-12-28T02:03:57;100444.78;;;7.95;100.00
51359;BME280;37448;51.588;7.248;2023-12-28T02:05:58;100436.13;;;7.95;100.00
51359;BME280;37448;51.588;7.248;2023-12-28T02:07:59;100451.69;;;7.99;100.00
51359;BME280;37448;51.588;7.248;2023-12-28T02:10:00;100450.81;;;7.99;100.00
51359;BME280;37448;51.588;7.248;2023-12-28T02:12:00;100455.94;;;8.05;100.00
51359;BME280;37448;51.588;7.248;2023-12-28T02:14:01;100449.88;;;8.04;100.00
51359;BME280;37448;51.588;7.248;2023-12-28T02:16:05;100453.25;;;8.11;100.00
51359;BME280;37448;51.588;7.248;2023-12-28T02:18:17;100445.47;;;8.11;100.00
51359;BME280;37448;51.588;7.248;2023-12-28T02:20:20;100458.44;;;8.14;100.00
51359;BME280;37448;51.588;7.248;2023-12-28T02:22:24;100453.25;;;8.13;100.00
51359;BME280;37448;51.588;7.248;2023-12-28T02:24:25;100449.78;;;8.15;100.00
51359;BME280;37448;51.588;7.248;2023-12-28T02:26:26;100458.44;;;8.14;100.00
51359;BME280;37448;51.588;7.248;2023-12-28T02:28:27;100462.72;;;8.18;100.00
51359;BME280;37448;51.588;7.248;2023-12-28T02:30:28;100454.94;;;8.18;100.00
51359;BME280;37448;51.588;7.248;2023-12-28T02:33:01;100469.69;;;8.16;100.00
51359;BME280;37448;51.588;7.248;2023-12-28T02:37:16;100451.50;;;8.16;100.00
51359;BME280;37448;51.588;7.248;2023-12-28T02:39:18;100461.84;;;8.20;100.00
51359;BME280;37448;51.588;7.248;2023-12-28T02:41:22;100462.72;;;8.18;100.00
51359;BME280;37448;51.588;7.248;2023-12-28T02:43:24;100455.78;;;8.21;100.00
51359;BME280;37448;51.588;7.248;2023-12-28T02:45:25;100453.19;;;8.21;100.00
51359;BME280;37448;51.588;7.248;2023-12-28T02:47:27;100444.50;;;8.22;100.00
51359;BME280;37448;51.588;7.248;2023-12-28T02:49:27;100462.66;;;8.23;100.00
51359;BME280;37448;51.588;7.248;2023-12-28T02:51:28;100455.75;;;8.24;100.00
51359;BME280;37448;51.588;7.248;2023-12-28T02:53:28;100454.03;;;8.23;100.00
51359;BME280;37448;51.588;7.248;2023-12-28T02:55:29;100450.56;;;8.24;100.00
51359;BME280;37448;51.588;7.248;2023-12-28T02:57:29;100448.84;;;8.23;100.00
51359;BME280;37448;51.588;7.248;2023-12-28T02:59:30;100440.13;;;8.27;100.00
51359;BME280;37448;51.588;7.248;2023-12-28T03:01:30;100430.63;;;8.26;100.00
51359;BME280;37448;51.588;7.248;2023-12-28T03:03:30;100427.19;;;8.22;100.00
51359;BME280;37448;51.588;7.248;2023-12-28T03:05:31;100433.25;;;8.23;100.00
51359;BME280;37448;51.588;7.248;2023-12-28T03:07:32;100435.00;;;8.21;100.00
51359;BME280;37448;51.588;7.248;2023-12-28T03:09:32;100441.94;;;8.18;100.00
51359;BME280;37448;51.588;7.248;2023-12-28T03:11:34;100439.38;;;8.17;100.00
51359;BME280;37448;51.588;7.248;2023-12-28T03:13:35;100454.09;;;8.16;100.00
51359;BME280;37448;51.588;7.248;2023-12-28T03:15:36;100454.97;;;8.15;100.00
51359;BME280;37448;51.588;7.248;2023-12-28T03:17:36;100444.63;;;8.12;100.00
51359;BME280;37448;51.588;7.248;2023-12-28T03:19:37;100446.31;;;8.15;100.00
51359;BME280;37448;51.588;7.248;2023-12-28T03:21:40;100436.75;;;8.17;100.00
51359;BME280;37448;51.588;7.248;2023-12-28T03:23:41;100439.41;;;8.15;100.00
51359;BME280;37448;51.588;7.248;2023-12-28T03:25:41;100441.94;;;8.18;100.00
51359;BME280;37448;51.588;7.248;2023-12-28T03:27:41;100435.03;;;8.17;100.00
51359;BME280;37448;51.588;7.248;2023-12-28T03:29:42;100431.53;;;8.22;100.00
51359;BME280;37448;51.588;7.248;2023-12-28T03:31:44;100429.81;;;8.21;100.00
51359;BME280;37448;51.588;7.248;2023-12-28T03:33:44;100427.19;;;8.22;100.00
51359;BME280;37448;51.588;7.248;2023-12-28T03:35:45;100431.50;;;8.25;100.00
51359;BME280;37448;51.588;7.248;2023-12-28T03:37:47;100427.19;;;8.22;100.00
51359;BME280;37448;51.588;7.248;2023-12-28T03:39:47;100427.19;;;8.24;100.00
51359;BME280;37448;51.588;7.248;2023-12-28T03:41:48;100415.06;;;8.21;100.00
51359;BME280;37448;51.588;7.248;2023-12-28T03:43:48;100429.81;;;8.21;100.00
51359;BME280;37448;51.588;7.248;2023-12-28T03:45:49;100422.03;;;8.21;100.00
51359;BME280;37448;51.588;7.248;2023-12-28T03:47:49;100430.69;;;8.20;100.00
51359;BME280;37448;51.588;7.248;2023-12-28T03:49:51;100429.81;;;8.21;100.00
51359;BME280;37448;51.588;7.248;2023-12-28T03:51:52;100418.50;;;8.23;100.00
51359;BME280;37448;51.588;7.248;2023-12-28T03:53:52;100424.63;;;8.21;100.00
51359;BME280;37448;51.588;7.248;2023-12-28T03:55:53;100417.66;;;8.23;100.00
51359;BME280;37448;51.588;7.248;2023-12-28T03:57:54;100410.78;;;8.18;100.00
51359;BME280;37448;51.588;7.248;2023-12-28T03:59:54;100414.22;;;8.21;100.00
51359;BME280;37448;51.588;7.248;2023-12-28T04:01:55;100435.00;;;8.21;100.00
51359;BME280;37448;51.588;7.248;2023-12-28T04:03:55;100445.41;;;8.19;100.00
51359;BME280;37448;51.588;7.248;2023-12-28T04:05:56;100419.41;;;8.21;100.00
51359;BME280;37448;51.588;7.248;2023-12-28T04:07:56;100422.91;;;8.20;100.00
51359;BME280;37448;51.588;7.248;2023-12-28T04:09:56;100406.41;;;8.22;100.00
51359;BME280;37448;51.588;7.248;2023-12-28T04:11:58;100412.47;;;8.24;100.00
51359;BME280;37448;51.588;7.248;2023-12-28T04:13:59;100409.88;;;8.23;100.00
51359;BME280;37448;51.588;7.248;2023-12-28T04:15:59;100424.63;;;8.21;100.00
51359;BME280;37448;51.588;7.248;2023-12-28T04:17:59;100412.50;;;8.20;100.00
51359;BME280;37448;51.588;7.248;2023-12-28T04:20:00;100417.69;;;8.20;100.00
51359;BME280;37448;51.588;7.248;2023-12-28T04:22:02;100410.75;;;8.22;100.00
51359;BME280;37448;51.588;7.248;2023-12-28T04:24:04;100409.00;;;8.24;100.00
51359;BME280;37448;51.588;7.248;2023-12-28T04:26:04;100402.91;;;8.26;100.00
51359;BME280;37448;51.588;7.248;2023-12-28T04:28:06;100418.47;;;8.28;100.00
51359;BME280;37448;51.588;7.248;2023-12-28T04:30:07;100405.44;;;8.31;100.00
51359;BME280;37448;51.588;7.248;2023-12-28T04:32:07;100419.31;;;8.31;100.00
51359;BME280;37448;51.588;7.248;2023-12-28T04:34:07;100409.78;;;8.29;100.00
51359;BME280;37448;51.588;7.248;2023-12-28T04:36:08;100409.78;;;8.29;100.00
51359;BME280;37448;51.588;7.248;2023-12-28T04:38:09;100411.47;;;8.33;100.00
51359;BME280;37448;51.588;7.248;2023-12-28T04:40:09;100428.78;;;8.36;100.00
51359;BME280;37448;51.588;7.248;2023-12-28T04:42:10;100427.84;;;8.41;100.00
51359;BME280;37448;51.588;7.248;2023-12-28T04:44:10;100429.59;;;8.39;100.00
51359;BME280;37448;51.588;7.248;2023-12-28T04:46:10;100420.03;;;8.43;100.00
51359;BME280;37448;51.588;7.248;2023-12-28T04:48:11;100410.47;;;8.46;100.00
51359;BME280;37448;51.588;7.248;2023-12-28T04:50:12;100427.78;;;8.47;100.00
51359;BME280;37448;51.588;7.248;2023-12-28T04:52:12;100434.69;;;8.49;100.00
51359;BME280;37448;51.588;7.248;2023-12-28T04:54:12;100432.09;;;8.50;100.00
51359;BME280;37448;51.588;7.248;2023-12-28T04:56:18;100430.31;;;8.51;100.00
51359;BME280;37448;51.588;7.248;2023-12-28T04:58:18;100433.75;;;8.54;100.00
51359;BME280;37448;51.588;7.248;2023-12-28T05:00:20;100444.19;;;8.51;100.00
51359;BME280;37448;51.588;7.248;2023-12-28T05:02:22;100429.44;;;8.52;100.00
51359;BME280;37448;51.588;7.248;2023-12-28T05:04:23;100437.28;;;8.50;100.00
51359;BME280;37448;51.588;7.248;2023-12-28T05:06:24;100425.16;;;8.49;100.00
51359;BME280;37448;51.588;7.248;2023-12-28T05:08:27;100448.50;;;8.51;100.00
51359;BME280;37448;51.588;7.248;2023-12-28T05:10:27;100438.97;;;8.54;100.00
51359;BME280;37448;51.588;7.248;2023-12-28T05:12:28;100438.09;;;8.54;100.00
51359;BME280;37448;51.588;7.248;2023-12-28T05:14:28;100437.25;;;8.52;100.00
51359;BME280;37448;51.588;7.248;2023-12-28T05:16:29;100440.69;;;8.54;100.00
51359;BME280;37448;51.588;7.248;2023-12-28T05:18:29;100445.84;;;8.57;100.00
51359;BME280;37448;51.588;7.248;2023-12-28T05:20:29;100436.34;;;8.54;100.00
51359;BME280;37448;51.588;7.248;2023-12-28T05:22:30;100435.53;;;8.52;100.00
51359;BME280;37448;51.588;7.248;2023-12-28T05:24:30;100442.44;;;8.52;100.00
51359;BME280;37448;51.588;7.248;2023-12-28T05:26:30;100438.13;;;8.51;100.00
51359;BME280;37448;51.588;7.248;2023-12-28T05:28:31;100450.19;;;8.55;99.73
51359;BME280;37448;51.588;7.248;2023-12-28T05:30:32;100450.16;;;8.58;99.98
51359;BME280;37448;51.588;7.248;2023-12-28T05:32:32;100448.47;;;8.54;100.00
51359;BME280;37448;51.588;7.248;2023-12-28T05:34:33;100453.72;;;8.52;100.00
51359;BME280;37448;51.588;7.248;2023-12-28T05:36:33;100454.50;;;8.56;100.00
51359;BME280;37448;51.588;7.248;2023-12-28T05:38:33;100468.38;;;8.56;100.00
51359;BME280;37448;51.588;7.248;2023-12-28T05:40:34;100460.53;;;8.61;100.00
51359;BME280;37448;51.588;7.248;2023-12-28T05:42:34;100455.34;;;8.61;100.00
51359;BME280;37448;51.588;7.248;2023-12-28T05:44:35;100463.13;;;8.61;100.00
51359;BME280;37448;51.588;7.248;2023-12-28T05:46:36;100470.91;;;8.64;100.00
51359;BME280;37448;51.588;7.248;2023-12-28T05:48:37;100478.66;;;8.66;100.00
51359;BME280;37448;51.588;7.248;2023-12-28T05:50:37;100474.34;;;8.66;98.93
51359;BME280;37448;51.588;7.248;2023-12-28T05:52:38;100483.84;;;8.66;100.00
51359;BME280;37448;51.588;7.248;2023-12-28T05:54:38;100477.75;;;8.70;98.72
51359;BME280;37448;51.588;7.248;2023-12-28T05:56:38;100486.41;;;8.69;100.00
51359;BME280;37448;51.588;7.248;2023-12-28T05:58:39;100495.09;;;8.69;100.00
51359;BME280;37448;51.588;7.248;2023-12-28T06:00:39;100491.59;;;8.70;99.12
51359;BME280;37448;51.588;7.248;2023-12-28T06:02:40;100490.72;;;8.71;100.00
51359;BME280;37448;51.588;7.248;2023-12-28T06:04:40;100485.53;;;8.71;97.78
51359;BME280;37448;51.588;7.248;2023-12-28T06:06:41;100491.53;;;8.76;97.61
51359;BME280;37448;51.588;7.248;2023-12-28T06:08:41;100488.94;;;8.76;97.79
51359;BME280;37448;51.588;7.248;2023-12-28T06:10:42;100492.41;;;8.77;99.44
51359;BME280;37448;51.588;7.248;2023-12-28T06:12:42;100490.69;;;8.74;98.24
51359;BME280;37448;51.588;7.248;2023-12-28T06:14:43;100485.53;;;8.73;97.70
51359;BME280;37448;51.588;7.248;2023-12-28T06:16:43;100494.19;;;8.72;100.00
51359;BME280;37448;51.588;7.248;2023-12-28T06:18:43;100488.16;;;8.68;99.54
51359;BME280;37448;51.588;7.248;2023-12-28T06:20:44;100495.94;;;8.73;98.42
51359;BME280;37448;51.588;7.248;2023-12-28T06:22:44;100489.00;;;8.72;99.80
51359;BME280;37448;51.588;7.248;2023-12-28T06:24:48;100495.09;;;8.69;99.64
51359;BME280;37448;51.588;7.248;2023-12-28T06:26:48;100489.84;;;8.71;99.69
51359;BME280;37448;51.588;7.248;2023-12-28T06:28:49;100495.09;;;8.69;97.69
51359;BME280;37448;51.588;7.248;2023-12-28T06:30:49;100489.84;;;8.72;99.00
51359;BME280;37448;51.588;7.248;2023-12-28T06:32:49;100495.09;;;8.69;99.31
51359;BME280;37448;51.588;7.248;2023-12-28T06:34:50;100502.03;;;8.67;99.12
51359;BME280;37448;51.588;7.248;2023-12-28T06:36:50;100491.66;;;8.67;100.00
51359;BME280;37448;51.588;7.248;2023-12-28T06:38:51;100489.88;;;8.69;98.02
51359;BME280;37448;51.588;7.248;2023-12-28T06:40:51;100490.72;;;8.70;98.06
51359;BME280;37448;51.588;7.248;2023-12-28T06:42:53;100491.59;;;8.70;98.14
51359;BME280;37448;51.588;7.248;2023-12-28T06:44:53;100495.09;;;8.69;99.14
51359;BME280;37448;51.588;7.248;2023-12-28T06:46:53;100506.31;;;8.70;95.51
51359;BME280;37448;51.588;7.248;2023-12-28T06:48:54;100494.19;;;8.72;96.83
51359;BME280;37448;51.588;7.248;2023-12-28T06:50:55;100483.81;;;8.70;96.21
51359;BME280;37448;51.588;7.248;2023-12-28T06:52:56;100482.09;;;8.69;97.77
51359;BME280;37448;51.588;7.248;2023-12-28T06:54:58;100488.13;;;8.71;98.77
51359;BME280;37448;51.588;7.248;2023-12-28T06:56:58;100485.53;;;8.70;98.27
51359;BME280;37448;51.588;7.248;2023-12-28T06:58:59;100479.50;;;8.69;98.13
51359;BME280;37448;51.588;7.248;2023-12-28T07:00:59;100476.00;;;8.70;96.10
51359;BME280;37448;51.588;7.248;2023-12-28T07:03:02;100471.69;;;8.69;95.93
51359;BME280;37448;51.588;7.248;2023-12-28T07:05:03;100479.56;;;8.63;96.89
51359;BME280;37448;51.588;7.248;2023-12-28T07:07:04;100489.97;;;8.63;97.45
51359;BME280;37448;51.588;7.248;2023-12-28T07:09:04;100494.28;;;8.63;97.98
51359;BME280;37448;51.588;7.248;2023-12-28T07:11:05;100496.88;;;8.63;97.90
51359;BME280;37448;51.588;7.248;2023-12-28T07:13:05;100486.53;;;8.61;99.97
51359;BME280;37448;51.588;7.248;2023-12-28T07:15:06;100485.66;;;8.60;98.42
51359;BME280;37448;51.588;7.248;2023-12-28T07:17:06;100483.06;;;8.62;99.58
51359;BME280;37448;51.588;7.248;2023-12-28T07:19:07;100484.78;;;8.63;98.07
51359;BME280;37448;51.588;7.248;2023-12-28T07:21:07;100496.06;;;8.60;97.58
51359;BME280;37448;51.588;7.248;2023-12-28T07:23:11;100493.44;;;8.62;96.91
51359;BME280;37448;51.588;7.248;2023-12-28T07:25:11;100495.22;;;8.60;98.65
51359;BME280;37448;51.588;7.248;2023-12-28T07:27:12;100493.44;;;8.62;98.38
51359;BME280;37448;51.588;7.248;2023-12-28T07:29:12;100497.78;;;8.61;96.85
51359;BME280;37448;51.588;7.248;2023-12-28T07:31:25;100489.97;;;8.61;97.18
51359;BME280;37448;51.588;7.248;2023-12-28T07:33:26;100495.22;;;8.60;97.53
51359;BME280;37448;51.588;7.248;2023-12-28T07:35:27;100507.31;;;8.59;98.68
51359;BME280;37448;51.588;7.248;2023-12-28T07:37:27;100512.53;;;8.58;97.77
51359;BME280;37448;51.588;7.248;2023-12-28T07:39:27;100517.69;;;8.64;95.22
51359;BME280;37448;51.588;7.248;2023-12-28T07:41:28;100521.16;;;8.63;96.25
51359;BME280;37448;51.588;7.248;2023-12-28T07:43:28;100529.84;;;8.62;96.19
51359;BME280;37448;51.588;7.248;2023-12-28T07:45:29;100535.03;;;8.62;97.55
51359;BME280;37448;51.588;7.248;2023-12-28T07:47:29;100523.72;;;8.65;96.91
51359;BME280;37448;51.588;7.248;2023-12-28T07:49:30;100541.91;;;8.66;98.61
51359;BME280;37448;51.588;7.248;2023-12-28T07:51:31;100542.78;;;8.64;97.47
51359;BME280;37448;51.588;7.248;2023-12-28T07:53:31;100533.31;;;8.61;98.28
51359;BME280;37448;51.588;7.248;2023-12-28T07:55:31;100548.84;;;8.67;98.88
51359;BME280;37448;51.588;7.248;2023-12-28T07:57:32;100541.88;;;8.69;95.92
51359;BME280;37448;51.588;7.248;2023-12-28T07:59:32;100548.78;;;8.70;96.78
51359;BME280;37448;51.588;7.248;2023-12-28T08:01:33;100547.91;;;8.70;98.01
51359;BME280;37448;51.588;7.248;2023-12-28T08:03:33;100560.88;;;8.74;95.24
51359;BME280;37448;51.588;7.248;2023-12-28T08:05:33;100556.56;;;8.73;96.99
51359;BME280;37448;51.588;7.248;2023-12-28T08:07:34;100554.84;;;8.72;96.85
51359;BME280;37448;51.588;7.248;2023-12-28T08:09:34;100560.88;;;8.74;96.42
51359;BME280;37448;51.588;7.248;2023-12-28T08:11:35;100566.06;;;8.74;97.67
51359;BME280;37448;51.588;7.248;2023-12-28T08:13:35;100576.47;;;8.74;99.43
51359;BME280;37448;51.588;7.248;2023-12-28T08:15:36;100559.13;;;8.76;96.32
51359;BME280;37448;51.588;7.248;2023-12-28T08:17:36;100573.00;;;8.75;95.80
51359;BME280;37448;51.588;7.248;2023-12-28T08:19:36;100567.75;;;8.79;96.26
51359;BME280;37448;51.588;7.248;2023-12-28T08:21:37;100564.28;;;8.81;95.48
51359;BME280;37448;51.588;7.248;2023-12-28T08:23:37;100563.34;;;8.85;93.81
51359;BME280;37448;51.588;7.248;2023-12-28T08:25:37;100566.84;;;8.83;95.79
51359;BME280;37448;51.588;7.248;2023-12-28T08:27:38;100572.91;;;8.85;96.40
51359;BME280;37448;51.588;7.248;2023-12-28T08:29:40;100577.25;;;8.83;97.47
51359;BME280;37448;51.588;7.248;2023-12-28T08:31:40;100574.63;;;8.86;96.66
51359;BME280;37448;51.588;7.248;2023-12-28T08:33:41;100568.53;;;8.88;94.88
51359;BME280;37448;51.588;7.248;2023-12-28T08:35:41;100579.75;;;8.92;96.75
51359;BME280;37448;51.588;7.248;2023-12-28T08:37:41;100576.28;;;8.93;95.97
51359;BME280;37448;51.588;7.248;2023-12-28T08:39:42;100572.78;;;8.94;96.59
51359;BME280;37448;51.588;7.248;2023-12-28T08:41:42;100581.44;;;8.96;94.35
51359;BME280;37448;51.588;7.248;2023-12-28T08:43:43;100577.97;;;8.97;95.26
51359;BME280;37448;51.588;7.248;2023-12-28T08:45:43;100571.03;;;8.96;95.62
51359;BME280;37448;51.588;7.248;2023-12-28T08:47:43;100576.19;;;8.99;95.60
51359;BME280;37448;51.588;7.248;2023-12-28T08:49:44;100580.50;;;9.02;97.90
51359;BME280;37448;51.588;7.248;2023-12-28T08:51:44;100573.50;;;9.05;96.02
51359;BME280;37448;51.588;7.248;2023-12-28T08:53:44;100580.44;;;9.08;94.30
51359;BME280;37448;51.588;7.248;2023-12-28T08:55:45;100592.56;;;9.09;96.19
51359;BME280;37448;51.588;7.248;2023-12-28T08:57:46;100589.13;;;9.05;95.37
51359;BME280;37448;51.588;7.248;2023-12-28T08:59:46;100596.00;;;9.11;97.35
51359;BME280;37448;51.588;7.248;2023-12-28T09:01:47;100588.22;;;9.10;93.70
51359;BME280;37448;51.588;7.248;2023-12-28T09:03:49;100596.00;;;9.11;94.42
51359;BME280;37448;51.588;7.248;2023-12-28T09:05:50;100601.22;;;9.10;94.81
51359;BME280;37448;51.588;7.248;2023-12-28T09:07:50;100602.09;;;9.10;95.59
51359;BME280;37448;51.588;7.248;2023-12-28T09:09:50;100622.00;;;9.11;95.71
51359;BME280;37448;51.588;7.248;2023-12-28T09:11:51;100602.06;;;9.12;94.03
51359;BME280;37448;51.588;7.248;2023-12-28T09:13:51;100608.97;;;9.16;96.32
51359;BME280;37448;51.588;7.248;2023-12-28T09:15:51;100607.28;;;9.12;94.90
51359;BME280;37448;51.588;7.248;2023-12-28T09:17:52;100607.25;;;9.15;96.78
51359;BME280;37448;51.588;7.248;2023-12-28T09:19:52;100608.97;;;9.14;94.69
51359;BME280;37448;51.588;7.248;2023-12-28T09:21:53;100615.97;;;9.11;92.73
51359;BME280;37448;51.588;7.248;2023-12-28T09:23:53;100604.63;;;9.15;94.50
51359;BME280;37448;51.588;7.248;2023-12-28T09:25:53;100601.16;;;9.14;95.02
51359;BME280;37448;51.588;7.248;2023-12-28T09:27:54;100600.31;;;9.14;95.51
51359;BME280;37448;51.588;7.248;2023-12-28T09:29:54;100593.34;;;9.16;95.49
51359;BME280;37448;51.588;7.248;2023-12-28T09:31:55;100593.34;;;9.16;95.01
51359;BME280;37448;51.588;7.248;2023-12-28T09:33:55;100606.31;;;9.19;94.53
51359;BME280;37448;51.588;7.248;2023-12-28T09:35:55;100595.06;;;9.17;93.71
51359;BME280;37448;51.588;7.248;2023-12-28T09:37:56;100603.69;;;9.22;93.99
51359;BME280;37448;51.588;7.248;2023-12-28T09:39:56;100602.78;;;9.23;94.36
51359;BME280;37448;51.588;7.248;2023-12-28T09:42:05;100595.03;;;9.20;94.37
51359;BME280;37448;51.588;7.248;2023-12-28T09:44:13;100591.47;;;9.27;93.46
51359;BME280;37448;51.588;7.248;2023-12-28T09:46:14;100601.81;;;9.30;92.09
51359;BME280;37448;51.588;7.248;2023-12-28T09:48:24;100609.56;;;9.37;94.97
51359;BME280;37448;51.588;7.248;2023-12-28T09:50:25;100605.16;;;9.42;94.26
51359;BME280;37448;51.588;7.248;2023-12-28T09:52:26;100605.13;;;9.45;93.27
51359;BME280;37448;51.588;7.248;2023-12-28T09:54:27;100605.09;;;9.50;93.26
51359;BME280;37448;51.588;7.248;2023-12-28T09:56:27;100605.97;;;9.47;94.80
51359;BME280;37448;51.588;7.248;2023-12-28T09:58:28;100604.22;;;9.47;96.61
51359;BME280;37448;51.588;7.248;2023-12-28T10:00:30;100615.53;;;9.46;92.91
51359;BME280;37448;51.588;7.248;2023-12-28T10:02:31;100611.22;;;9.44;92.89
51359;BME280;37448;51.588;7.248;2023-12-28T10:04:32;100619.03;;;9.44;92.29
51359;BME280;37448;51.588;7.248;2023-12-28T10:06:33;100606.84;;;9.46;91.89
51359;BME280;37448;51.588;7.248;2023-12-28T10:08:33;100612.03;;;9.46;94.15
51359;BME280;37448;51.588;7.248;2023-12-28T10:10:35;100599.88;;;9.48;94.78
51359;BME280;37448;51.588;7.248;2023-12-28T10:12:36;100605.06;;;9.48;92.23
51359;BME280;37448;51.588;7.248;2023-12-28T10:14:36;100605.13;;;9.45;92.47
51359;BME280;37448;51.588;7.248;2023-12-28T10:16:40;100604.28;;;9.44;91.42
51359;BME280;37448;51.588;7.248;2023-12-28T10:18:44;100601.69;;;9.43;91.69
51359;BME280;37448;51.588;7.248;2023-12-28T10:20:51;100603.34;;;9.47;92.60
51359;BME280;37448;51.588;7.248;2023-12-28T10:22:52;100599.91;;;9.45;93.04
51359;BME280;37448;51.588;7.248;2023-12-28T10:24:52;100602.50;;;9.46;91.96
51359;BME280;37448;51.588;7.248;2023-12-28T10:26:52;100606.00;;;9.44;91.63
51359;BME280;37448;51.588;7.248;2023-12-28T10:28:59;100599.06;;;9.44;93.21
51359;BME280;37448;51.588;7.248;2023-12-28T10:31:00;100599.91;;;9.45;92.78
51359;BME280;37448;51.588;7.248;2023-12-28T10:33:04;100602.50;;;9.46;91.84
51359;BME280;37448;51.588;7.248;2023-12-28T10:35:06;100606.84;;;9.46;93.29
51359;BME280;37448;51.588;7.248;2023-12-28T10:37:06;100603.41;;;9.44;92.13
51359;BME280;37448;51.588;7.248;2023-12-28T10:39:09;100595.59;;;9.44;92.79